sensor_id;sensor_type;location;lat;lon;timestamp;P1;durP1;ratioP1;P2;durP2;ratioP2
60372;SDS011;46216;52.220;5.134;2023-02-24T00:01:14;17.17;;;3.80;;
60372;SDS011;46216;52.220;5.134;2023-02-24T00:03:58;14.82;;;3.97;;
60372;SDS011;46216;52.220;5.134;2023-02-24T00:06:25;15.10;;;3.40;;
60372;SDS011;46216;52.220;5.134;2023-02-24T00:09:00;15.90;;;3.70;;
60372;SDS011;46216;52.220;5.134;2023-02-24T00:11:26;19.70;;;3.58;;
60372;SDS011;46216;52.220;5.134;2023-02-24T00:13:52;18.33;;;3.88;;
60372;SDS011;46216;52.220;5.134;2023-02-24T00:16:17;11.82;;;3.83;;
60372;SDS011;46216;52.220;5.134;2023-02-24T00:18:44;16.90;;;4.07;;
60372;SDS011;46216;52.220;5.134;2023-02-24T00:21:10;14.30;;;4.10;;
60372;SDS011;46216;52.220;5.134;2023-02-24T00:23:39;12.18;;;3.92;;
60372;SDS011;46216;52.220;5.134;2023-02-24T00:26:10;16.98;;;4.57;;
60372;SDS011;46216;52.220;5.134;2023-02-24T00:28:38;12.10;;;3.50;;
60372;SDS011;46216;52.220;5.134;2023-02-24T00:31:07;14.77;;;3.65;;
60372;SDS011;46216;52.220;5.134;2023-02-24T00:33:38;13.80;;;3.50;;
60372;SDS011;46216;52.220;5.134;2023-02-24T00:36:06;11.82;;;3.85;;
60372;SDS011;46216;52.220;5.134;2023-02-24T00:38:32;10.52;;;3.15;;
60372;SDS011;46216;52.220;5.134;2023-02-24T00:41:00;18.38;;;3.72;;
60372;SDS011;46216;52.220;5.134;2023-02-24T00:43:38;11.65;;;4.07;;
60372;SDS011;46216;52.220;5.134;2023-02-24T00:46:04;14.23;;;3.60;;
60372;SDS011;46216;52.220;5.134;2023-02-24T00:48:38;14.57;;;4.03;;
60372;SDS011;46216;52.220;5.134;2023-02-24T00:51:11;11.70;;;3.75;;
60372;SDS011;46216;52.220;5.134;2023-02-24T00:53:47;11.00;;;3.88;;
60372;SDS011;46216;52.220;5.134;2023-02-24T00:56:14;10.43;;;3.50;;
60372;SDS011;46216;52.220;5.134;2023-02-24T00:58:40;16.13;;;3.65;;
60372;SDS011;46216;52.220;5.134;2023-02-24T01:01:11;17.48;;;3.78;;
60372;SDS011;46216;52.220;5.134;2023-02-24T01:03:38;11.40;;;3.35;;
60372;SDS011;46216;52.220;5.134;2023-02-24T01:06:03;15.60;;;3.40;;
60372;SDS011;46216;52.220;5.134;2023-02-24T01:08:30;12.75;;;3.20;;
60372;SDS011;46216;52.220;5.134;2023-02-24T01:11:00;13.70;;;3.00;;
60372;SDS011;46216;52.220;5.134;2023-02-24T01:13:45;11.77;;;2.90;;
60372;SDS011;46216;52.220;5.134;2023-02-24T01:16:11;12.88;;;3.60;;
60372;SDS011;46216;52.220;5.134;2023-02-24T01:18:43;12.73;;;3.45;;
60372;SDS011;46216;52.220;5.134;2023-02-24T01:21:10;13.35;;;3.20;;
60372;SDS011;46216;52.220;5.134;2023-02-24T01:23:36;14.35;;;2.90;;
60372;SDS011;46216;52.220;5.134;2023-02-24T01:26:02;13.60;;;3.42;;
60372;SDS011;46216;52.220;5.134;2023-02-24T01:28:28;14.90;;;3.85;;
60372;SDS011;46216;52.220;5.134;2023-02-24T01:30:54;9.82;;;3.28;;
60372;SDS011;46216;52.220;5.134;2023-02-24T01:33:20;11.82;;;3.53;;
60372;SDS011;46216;52.220;5.134;2023-02-24T01:35:46;14.00;;;3.08;;
60372;SDS011;46216;52.220;5.134;2023-02-24T01:38:12;15.45;;;3.30;;
60372;SDS011;46216;52.220;5.134;2023-02-24T01:40:37;17.58;;;3.42;;
60372;SDS011;46216;52.220;5.134;2023-02-24T01:43:03;8.95;;;2.95;;
60372;SDS011;46216;52.220;5.134;2023-02-24T01:45:33;15.15;;;3.13;;
60372;SDS011;46216;52.220;5.134;2023-02-24T01:48:01;10.60;;;3.28;;
60372;SDS011;46216;52.220;5.134;2023-02-24T01:50:30;8.80;;;2.60;;
60372;SDS011;46216;52.220;5.134;2023-02-24T01:53:00;11.43;;;2.70;;
60372;SDS011;46216;52.220;5.134;2023-02-24T01:55:30;7.35;;;2.30;;
60372;SDS011;46216;52.220;5.134;2023-02-24T01:58:00;13.07;;;2.75;;
60372;SDS011;46216;52.220;5.134;2023-02-24T02:00:28;6.63;;;2.17;;
60372;SDS011;46216;52.220;5.134;2023-02-24T02:03:27;9.52;;;2.40;;
60372;SDS011;46216;52.220;5.134;2023-02-24T02:05:58;12.57;;;2.58;;
60372;SDS011;46216;52.220;5.134;2023-02-24T02:08:25;14.15;;;2.17;;
60372;SDS011;46216;52.220;5.134;2023-02-24T02:10:53;13.18;;;2.88;;
60372;SDS011;46216;52.220;5.134;2023-02-24T02:13:23;8.40;;;2.00;;
60372;SDS011;46216;52.220;5.134;2023-02-24T02:16:05;7.75;;;2.05;;
60372;SDS011;46216;52.220;5.134;2023-02-24T02:27:05;13.00;;;2.30;;
60372;SDS011;46216;52.220;5.134;2023-02-24T02:29:43;8.90;;;2.05;;
60372;SDS011;46216;52.220;5.134;2023-02-24T02:35:54;11.70;;;1.90;;
60372;SDS011;46216;52.220;5.134;2023-02-24T02:38:32;8.77;;;2.15;;
60372;SDS011;46216;52.220;5.134;2023-02-24T02:41:10;9.70;;;1.80;;
60372;SDS011;46216;52.220;5.134;2023-02-24T02:46:26;8.02;;;2.00;;
60372;SDS011;46216;52.220;5.134;2023-02-24T02:49:18;8.02;;;1.75;;
60372;SDS011;46216;52.220;5.134;2023-02-24T02:51:51;8.85;;;1.75;;
60372;SDS011;46216;52.220;5.134;2023-02-24T02:54:26;12.43;;;1.77;;
60372;SDS011;46216;52.220;5.134;2023-02-24T02:56:58;10.15;;;2.35;;
60372;SDS011;46216;52.220;5.134;2023-02-24T02:59:30;8.00;;;1.60;;
60372;SDS011;46216;52.220;5.134;2023-02-24T03:01:59;8.10;;;1.50;;
60372;SDS011;46216;52.220;5.134;2023-02-24T03:04:37;7.15;;;1.55;;
60372;SDS011;46216;52.220;5.134;2023-02-24T03:07:06;9.43;;;1.40;;
60372;SDS011;46216;52.220;5.134;2023-02-24T03:09:35;8.60;;;1.75;;
60372;SDS011;46216;52.220;5.134;2023-02-24T03:12:10;7.85;;;1.55;;
60372;SDS011;46216;52.220;5.134;2023-02-24T03:14:39;7.07;;;1.48;;
60372;SDS011;46216;52.220;5.134;2023-02-24T03:17:14;9.02;;;1.67;;
60372;SDS011;46216;52.220;5.134;2023-02-24T03:19:47;7.25;;;1.38;;
60372;SDS011;46216;52.220;5.134;2023-02-24T03:22:32;7.60;;;1.48;;
60372;SDS011;46216;52.220;5.134;2023-02-24T03:25:03;9.35;;;1.65;;
60372;SDS011;46216;52.220;5.134;2023-02-24T03:27:32;5.88;;;1.50;;
60372;SDS011;46216;52.220;5.134;2023-02-24T03:30:00;8.90;;;1.73;;
60372;SDS011;46216;52.220;5.134;2023-02-24T03:32:37;7.03;;;1.33;;
60372;SDS011;46216;52.220;5.134;2023-02-24T03:35:21;11.05;;;1.90;;
60372;SDS011;46216;52.220;5.134;2023-02-24T03:37:46;6.82;;;1.42;;
60372;SDS011;46216;52.220;5.134;2023-02-24T03:40:13;6.00;;;1.40;;
60372;SDS011;46216;52.220;5.134;2023-02-24T03:42:44;9.75;;;1.17;;
60372;SDS011;46216;52.220;5.134;2023-02-24T03:45:12;13.32;;;1.45;;
60372;SDS011;46216;52.220;5.134;2023-02-24T03:47:40;7.88;;;1.58;;
60372;SDS011;46216;52.220;5.134;2023-02-24T04:01:01;8.48;;;1.50;;
60372;SDS011;46216;52.220;5.134;2023-02-24T04:03:43;8.77;;;1.95;;
60372;SDS011;46216;52.220;5.134;2023-02-24T04:06:16;8.23;;;1.67;;
60372;SDS011;46216;52.220;5.134;2023-02-24T04:11:35;6.40;;;1.25;;
60372;SDS011;46216;52.220;5.134;2023-02-24T04:14:11;5.03;;;1.50;;
60372;SDS011;46216;52.220;5.134;2023-02-24T04:16:54;6.15;;;1.27;;
60372;SDS011;46216;52.220;5.134;2023-02-24T04:19:25;6.45;;;1.30;;
60372;SDS011;46216;52.220;5.134;2023-02-24T04:21:56;9.60;;;1.80;;
60372;SDS011;46216;52.220;5.134;2023-02-24T04:24:25;8.02;;;1.40;;
60372;SDS011;46216;52.220;5.134;2023-02-24T04:26:54;6.93;;;1.58;;
60372;SDS011;46216;52.220;5.134;2023-02-24T04:29:23;9.20;;;1.48;;
60372;SDS011;46216;52.220;5.134;2023-02-24T04:31:53;6.43;;;1.23;;
60372;SDS011;46216;52.220;5.134;2023-02-24T04:34:25;8.65;;;1.45;;
60372;SDS011;46216;52.220;5.134;2023-02-24T04:36:56;8.38;;;1.77;;
60372;SDS011;46216;52.220;5.134;2023-02-24T04:39:23;6.57;;;1.10;;
60372;SDS011;46216;52.220;5.134;2023-02-24T04:41:49;6.60;;;1.48;;
60372;SDS011;46216;52.220;5.134;2023-02-24T04:44:15;6.95;;;1.35;;
60372;SDS011;46216;52.220;5.134;2023-02-24T04:46:45;7.53;;;1.52;;
60372;SDS011;46216;52.220;5.134;2023-02-24T04:49:11;6.38;;;1.35;;
60372;SDS011;46216;52.220;5.134;2023-02-24T04:51:38;8.45;;;1.45;;
60372;SDS011;46216;52.220;5.134;2023-02-24T04:54:10;6.43;;;1.63;;
60372;SDS011;46216;52.220;5.134;2023-02-24T04:56:40;7.03;;;1.33;;
60372;SDS011;46216;52.220;5.134;2023-02-24T04:59:06;4.82;;;1.13;;
60372;SDS011;46216;52.220;5.134;2023-02-24T05:01:34;7.18;;;1.38;;
60372;SDS011;46216;52.220;5.134;2023-02-24T05:04:04;5.65;;;1.13;;
60372;SDS011;46216;52.220;5.134;2023-02-24T05:06:30;4.95;;;1.75;;
60372;SDS011;46216;52.220;5.134;2023-02-24T05:08:56;4.22;;;1.55;;
60372;SDS011;46216;52.220;5.134;2023-02-24T05:11:21;8.05;;;1.70;;
60372;SDS011;46216;52.220;5.134;2023-02-24T05:13:48;4.78;;;1.10;;
60372;SDS011;46216;52.220;5.134;2023-02-24T05:16:14;4.57;;;1.20;;
60372;SDS011;46216;52.220;5.134;2023-02-24T05:18:42;5.72;;;1.25;;
60372;SDS011;46216;52.220;5.134;2023-02-24T05:21:12;9.32;;;1.65;;
60372;SDS011;46216;52.220;5.134;2023-02-24T05:23:58;6.10;;;1.50;;
60372;SDS011;46216;52.220;5.134;2023-02-24T05:26:23;9.88;;;1.77;;
60372;SDS011;46216;52.220;5.134;2023-02-24T05:28:50;5.85;;;1.77;;
60372;SDS011;46216;52.220;5.134;2023-02-24T05:31:19;11.27;;;1.60;;
60372;SDS011;46216;52.220;5.134;2023-02-24T05:33:56;10.25;;;1.50;;
60372;SDS011;46216;52.220;5.134;2023-02-24T05:36:27;6.15;;;1.42;;
60372;SDS011;46216;52.220;5.134;2023-02-24T05:38:56;7.57;;;1.52;;
60372;SDS011;46216;52.220;5.134;2023-02-24T05:41:32;6.68;;;1.10;;
60372;SDS011;46216;52.220;5.134;2023-02-24T05:44:04;7.80;;;1.55;;
60372;SDS011;46216;52.220;5.134;2023-02-24T05:46:36;3.60;;;1.30;;
60372;SDS011;46216;52.220;5.134;2023-02-24T05:49:05;7.82;;;1.30;;
60372;SDS011;46216;52.220;5.134;2023-02-24T05:51:36;8.80;;;1.38;;
60372;SDS011;46216;52.220;5.134;2023-02-24T05:54:07;5.00;;;1.20;;
60372;SDS011;46216;52.220;5.134;2023-02-24T05:56:36;7.93;;;1.50;;
60372;SDS011;46216;52.220;5.134;2023-02-24T05:59:03;8.40;;;1.40;;
60372;SDS011;46216;52.220;5.134;2023-02-24T06:01:32;9.30;;;1.60;;
60372;SDS011;46216;52.220;5.134;2023-02-24T06:04:02;5.72;;;1.75;;
60372;SDS011;46216;52.220;5.134;2023-02-24T06:06:36;7.30;;;1.60;;
60372;SDS011;46216;52.220;5.134;2023-02-24T06:09:04;5.43;;;1.50;;
60372;SDS011;46216;52.220;5.134;2023-02-24T06:11:33;8.23;;;1.70;;
60372;SDS011;46216;52.220;5.134;2023-02-24T06:13:59;5.70;;;1.67;;
60372;SDS011;46216;52.220;5.134;2023-02-24T06:16:24;8.52;;;1.95;;
60372;SDS011;46216;52.220;5.134;2023-02-24T06:18:52;9.80;;;2.03;;
60372;SDS011;46216;52.220;5.134;2023-02-24T06:21:20;6.95;;;1.95;;
60372;SDS011;46216;52.220;5.134;2023-02-24T06:23:46;4.93;;;1.70;;
60372;SDS011;46216;52.220;5.134;2023-02-24T06:26:11;10.48;;;1.95;;
60372;SDS011;46216;52.220;5.134;2023-02-24T06:28:38;7.07;;;2.20;;
60372;SDS011;46216;52.220;5.134;2023-02-24T06:31:05;8.95;;;2.10;;
60372;SDS011;46216;52.220;5.134;2023-02-24T06:33:31;7.68;;;1.95;;
60372;SDS011;46216;52.220;5.134;2023-02-24T06:36:03;9.45;;;2.00;;
60372;SDS011;46216;52.220;5.134;2023-02-24T06:38:32;6.95;;;2.20;;
60372;SDS011;46216;52.220;5.134;2023-02-24T06:40:59;11.60;;;2.22;;
60372;SDS011;46216;52.220;5.134;2023-02-24T06:43:28;7.55;;;2.00;;
60372;SDS011;46216;52.220;5.134;2023-02-24T06:45:57;8.55;;;1.90;;
60372;SDS011;46216;52.220;5.134;2023-02-24T06:48:23;6.22;;;2.03;;
60372;SDS011;46216;52.220;5.134;2023-02-24T06:50:48;7.68;;;2.03;;
60372;SDS011;46216;52.220;5.134;2023-02-24T06:53:15;9.50;;;2.30;;
60372;SDS011;46216;52.220;5.134;2023-02-24T06:55:44;7.78;;;2.20;;
60372;SDS011;46216;52.220;5.134;2023-02-24T06:58:17;5.80;;;2.03;;
60372;SDS011;46216;52.220;5.134;2023-02-24T07:00:44;7.45;;;2.03;;
60372;SDS011;46216;52.220;5.134;2023-02-24T07:03:20;8.70;;;2.20;;
60372;SDS011;46216;52.220;5.134;2023-02-24T07:05:51;14.23;;;2.38;;
60372;SDS011;46216;52.220;5.134;2023-02-24T07:08:24;6.93;;;1.80;;
60372;SDS011;46216;52.220;5.134;2023-02-24T07:10:52;6.97;;;2.00;;
60372;SDS011;46216;52.220;5.134;2023-02-24T07:13:19;7.28;;;2.35;;
60372;SDS011;46216;52.220;5.134;2023-02-24T07:15:46;10.52;;;2.20;;
60372;SDS011;46216;52.220;5.134;2023-02-24T07:18:14;9.00;;;2.38;;
60372;SDS011;46216;52.220;5.134;2023-02-24T07:20:43;8.07;;;1.88;;
60372;SDS011;46216;52.220;5.134;2023-02-24T07:23:13;7.45;;;2.03;;
60372;SDS011;46216;52.220;5.134;2023-02-24T07:25:42;10.15;;;2.08;;
60372;SDS011;46216;52.220;5.134;2023-02-24T07:28:10;9.55;;;2.20;;
60372;SDS011;46216;52.220;5.134;2023-02-24T07:30:37;9.32;;;2.28;;
60372;SDS011;46216;52.220;5.134;2023-02-24T07:33:04;9.48;;;2.50;;
60372;SDS011;46216;52.220;5.134;2023-02-24T07:35:31;9.00;;;2.15;;
60372;SDS011;46216;52.220;5.134;2023-02-24T07:37:57;11.10;;;2.35;;
60372;SDS011;46216;52.220;5.134;2023-02-24T07:40:35;8.65;;;2.33;;
60372;SDS011;46216;52.220;5.134;2023-02-24T07:43:00;12.68;;;2.70;;
60372;SDS011;46216;52.220;5.134;2023-02-24T07:45:26;10.13;;;2.13;;
60372;SDS011;46216;52.220;5.134;2023-02-24T07:47:53;8.20;;;2.72;;
60372;SDS011;46216;52.220;5.134;2023-02-24T07:50:19;6.47;;;2.13;;
60372;SDS011;46216;52.220;5.134;2023-02-24T07:52:45;7.95;;;2.50;;
60372;SDS011;46216;52.220;5.134;2023-02-24T07:55:12;7.10;;;2.00;;
60372;SDS011;46216;52.220;5.134;2023-02-24T07:57:39;7.22;;;2.20;;
60372;SDS011;46216;52.220;5.134;2023-02-24T08:00:11;5.95;;;2.05;;
60372;SDS011;46216;52.220;5.134;2023-02-24T08:02:43;9.50;;;2.40;;
60372;SDS011;46216;52.220;5.134;2023-02-24T08:05:09;6.07;;;2.08;;
60372;SDS011;46216;52.220;5.134;2023-02-24T08:07:35;11.43;;;3.03;;
60372;SDS011;46216;52.220;5.134;2023-02-24T08:10:00;5.30;;;2.25;;
60372;SDS011;46216;52.220;5.134;2023-02-24T08:12:38;7.80;;;2.50;;
60372;SDS011;46216;52.220;5.134;2023-02-24T08:15:06;9.88;;;2.47;;
60372;SDS011;46216;52.220;5.134;2023-02-24T08:17:40;10.32;;;2.50;;
60372;SDS011;46216;52.220;5.134;2023-02-24T08:20:07;13.23;;;3.55;;
60372;SDS011;46216;52.220;5.134;2023-02-24T08:22:39;10.13;;;2.70;;
60372;SDS011;46216;52.220;5.134;2023-02-24T08:25:10;10.57;;;2.47;;
60372;SDS011;46216;52.220;5.134;2023-02-24T08:27:42;16.27;;;3.72;;
60372;SDS011;46216;52.220;5.134;2023-02-24T08:30:09;9.52;;;2.83;;
60372;SDS011;46216;52.220;5.134;2023-02-24T08:32:47;11.05;;;4.35;;
60372;SDS011;46216;52.220;5.134;2023-02-24T08:35:21;12.40;;;3.67;;
60372;SDS011;46216;52.220;5.134;2023-02-24T08:37:56;10.90;;;2.45;;
60372;SDS011;46216;52.220;5.134;2023-02-24T08:40:27;14.38;;;2.78;;
60372;SDS011;46216;52.220;5.134;2023-02-24T08:43:00;10.50;;;2.88;;
60372;SDS011;46216;52.220;5.134;2023-02-24T08:45:47;11.32;;;2.50;;
60372;SDS011;46216;52.220;5.134;2023-02-24T08:48:16;10.93;;;2.70;;
60372;SDS011;46216;52.220;5.134;2023-02-24T08:51:10;9.40;;;2.63;;
60372;SDS011;46216;52.220;5.134;2023-02-24T08:53:40;13.32;;;2.50;;
60372;SDS011;46216;52.220;5.134;2023-02-24T08:56:08;14.95;;;3.45;;
60372;SDS011;46216;52.220;5.134;2023-02-24T08:58:36;12.73;;;2.72;;
60372;SDS011;46216;52.220;5.134;2023-02-24T09:01:19;15.32;;;2.78;;
60372;SDS011;46216;52.220;5.134;2023-02-24T09:03:48;14.25;;;3.75;;
60372;SDS011;46216;52.220;5.134;2023-02-24T09:06:18;10.73;;;2.97;;
60372;SDS011;46216;52.220;5.134;2023-02-24T09:08:53;12.98;;;2.88;;
60372;SDS011;46216;52.220;5.134;2023-02-24T09:11:40;14.88;;;2.78;;
60372;SDS011;46216;52.220;5.134;2023-02-24T09:14:12;12.65;;;2.92;;
60372;SDS011;46216;52.220;5.134;2023-02-24T09:16:47;13.93;;;3.10;;
60372;SDS011;46216;52.220;5.134;2023-02-24T09:25:00;19.23;;;3.40;;
60372;SDS011;46216;52.220;5.134;2023-02-24T09:27:42;16.55;;;3.55;;
60372;SDS011;46216;52.220;5.134;2023-02-24T09:30:20;15.77;;;2.85;;
60372;SDS011;46216;52.220;5.134;2023-02-24T09:33:16;11.68;;;3.15;;
60372;SDS011;46216;52.220;5.134;2023-02-24T09:36:04;10.55;;;2.55;;
60372;SDS011;46216;52.220;5.134;2023-02-24T09:38:50;19.00;;;3.45;;
60372;SDS011;46216;52.220;5.134;2023-02-24T09:41:36;17.55;;;2.97;;
60372;SDS011;46216;52.220;5.134;2023-02-24T09:44:19;12.95;;;2.97;;
60372;SDS011;46216;52.220;5.134;2023-02-24T09:47:19;13.07;;;2.83;;
60372;SDS011;46216;52.220;5.134;2023-02-24T09:52:47;17.40;;;3.03;;
60372;SDS011;46216;52.220;5.134;2023-02-24T09:55:22;14.07;;;3.67;;
60372;SDS011;46216;52.220;5.134;2023-02-24T10:03:25;16.85;;;3.50;;
60372;SDS011;46216;52.220;5.134;2023-02-24T10:06:14;10.77;;;3.67;;
60372;SDS011;46216;52.220;5.134;2023-02-24T10:08:58;12.73;;;3.40;;
60372;SDS011;46216;52.220;5.134;2023-02-24T10:11:36;12.27;;;3.50;;
60372;SDS011;46216;52.220;5.134;2023-02-24T10:14:04;15.57;;;3.42;;
60372;SDS011;46216;52.220;5.134;2023-02-24T10:16:35;12.43;;;3.90;;
60372;SDS011;46216;52.220;5.134;2023-02-24T10:19:10;11.43;;;3.80;;
60372;SDS011;46216;52.220;5.134;2023-02-24T10:24:36;14.77;;;4.32;;
60372;SDS011;46216;52.220;5.134;2023-02-24T10:27:21;10.77;;;4.22;;
60372;SDS011;46216;52.220;5.134;2023-02-24T10:35:23;15.77;;;6.38;;
60372;SDS011;46216;52.220;5.134;2023-02-24T10:37:51;19.65;;;7.03;;
60372;SDS011;46216;52.220;5.134;2023-02-24T10:40:17;14.05;;;6.75;;
60372;SDS011;46216;52.220;5.134;2023-02-24T10:43:08;13.20;;;6.82;;
60372;SDS011;46216;52.220;5.134;2023-02-24T10:45:37;13.32;;;6.85;;
60372;SDS011;46216;52.220;5.134;2023-02-24T10:48:09;15.68;;;7.65;;
60372;SDS011;46216;52.220;5.134;2023-02-24T10:50:40;17.10;;;8.55;;
60372;SDS011;46216;52.220;5.134;2023-02-24T10:53:14;20.05;;;9.07;;
60372;SDS011;46216;52.220;5.134;2023-02-24T10:56:04;17.55;;;9.15;;
60372;SDS011;46216;52.220;5.134;2023-02-24T10:58:39;18.55;;;10.27;;
60372;SDS011;46216;52.220;5.134;2023-02-24T11:04:04;16.77;;;9.65;;
60372;SDS011;46216;52.220;5.134;2023-02-24T11:06:47;21.92;;;10.48;;
60372;SDS011;46216;52.220;5.134;2023-02-24T11:09:22;18.55;;;9.85;;
60372;SDS011;46216;52.220;5.134;2023-02-24T11:11:57;20.88;;;10.05;;
60372;SDS011;46216;52.220;5.134;2023-02-24T11:14:50;17.60;;;9.13;;
60372;SDS011;46216;52.220;5.134;2023-02-24T11:17:37;25.13;;;11.10;;
60372;SDS011;46216;52.220;5.134;2023-02-24T11:20:46;19.40;;;11.13;;
60372;SDS011;46216;52.220;5.134;2023-02-24T11:23:55;19.00;;;10.13;;
60372;SDS011;46216;52.220;5.134;2023-02-24T11:26:17;22.00;;;11.00;;
60372;SDS011;46216;52.220;5.134;2023-02-24T11:31:37;15.85;;;9.20;;
60372;SDS011;46216;52.220;5.134;2023-02-24T11:34:16;21.20;;;8.98;;
60372;SDS011;46216;52.220;5.134;2023-02-24T11:37:05;16.25;;;8.77;;
60372;SDS011;46216;52.220;5.134;2023-02-24T11:42:18;19.80;;;8.57;;
60372;SDS011;46216;52.220;5.134;2023-02-24T11:47:58;21.15;;;7.15;;
60372;SDS011;46216;52.220;5.134;2023-02-24T11:50:29;18.05;;;7.90;;
60372;SDS011;46216;52.220;5.134;2023-02-24T11:53:04;23.48;;;6.68;;
60372;SDS011;46216;52.220;5.134;2023-02-24T11:55:42;18.80;;;6.53;;
60372;SDS011;46216;52.220;5.134;2023-02-24T11:58:20;19.23;;;5.47;;
60372;SDS011;46216;52.220;5.134;2023-02-24T12:00:54;19.30;;;5.07;;
60372;SDS011;46216;52.220;5.134;2023-02-24T12:03:34;18.73;;;3.85;;
60372;SDS011;46216;52.220;5.134;2023-02-24T12:06:09;19.25;;;3.80;;
60372;SDS011;46216;52.220;5.134;2023-02-24T12:08:40;18.60;;;3.88;;
60372;SDS011;46216;52.220;5.134;2023-02-24T12:11:15;24.95;;;3.88;;
60372;SDS011;46216;52.220;5.134;2023-02-24T12:13:51;27.63;;;4.45;;
60372;SDS011;46216;52.220;5.134;2023-02-24T12:16:34;21.83;;;4.53;;
60372;SDS011;46216;52.220;5.134;2023-02-24T12:19:13;19.85;;;3.53;;
60372;SDS011;46216;52.220;5.134;2023-02-24T12:22:22;18.92;;;4.13;;
60372;SDS011;46216;52.220;5.134;2023-02-24T12:24:49;18.17;;;3.80;;
60372;SDS011;46216;52.220;5.134;2023-02-24T12:41:43;17.13;;;3.20;;
60372;SDS011;46216;52.220;5.134;2023-02-24T12:55:35;25.23;;;3.85;;
60372;SDS011;46216;52.220;5.134;2023-02-24T12:58:10;20.05;;;3.45;;
60372;SDS011;46216;52.220;5.134;2023-02-24T13:00:46;20.70;;;3.42;;
60372;SDS011;46216;52.220;5.134;2023-02-24T13:06:03;20.38;;;3.30;;
60372;SDS011;46216;52.220;5.134;2023-02-24T13:08:42;22.17;;;3.55;;
60372;SDS011;46216;52.220;5.134;2023-02-24T13:14:15;15.20;;;3.17;;
60372;SDS011;46216;52.220;5.134;2023-02-24T13:16:48;15.48;;;3.15;;
60372;SDS011;46216;52.220;5.134;2023-02-24T13:19:17;22.25;;;3.55;;
60372;SDS011;46216;52.220;5.134;2023-02-24T13:21:57;13.27;;;2.40;;
60372;SDS011;46216;52.220;5.134;2023-02-24T13:24:41;11.40;;;2.03;;
60372;SDS011;46216;52.220;5.134;2023-02-24T13:29:44;6.18;;;1.40;;
60372;SDS011;46216;52.220;5.134;2023-02-24T13:34:53;11.88;;;2.00;;
60372;SDS011;46216;52.220;5.134;2023-02-24T13:45:20;15.15;;;2.55;;
60372;SDS011;46216;52.220;5.134;2023-02-24T14:02:16;12.63;;;2.20;;
60372;SDS011;46216;52.220;5.134;2023-02-24T14:04:44;14.57;;;2.03;;
60372;SDS011;46216;52.220;5.134;2023-02-24T14:07:16;10.80;;;2.15;;
60372;SDS011;46216;52.220;5.134;2023-02-24T14:09:47;15.52;;;2.78;;
60372;SDS011;46216;52.220;5.134;2023-02-24T14:12:19;15.10;;;2.60;;
60372;SDS011;46216;52.220;5.134;2023-02-24T14:14:48;17.13;;;2.53;;
60372;SDS011;46216;52.220;5.134;2023-02-24T14:17:19;11.88;;;2.45;;
60372;SDS011;46216;52.220;5.134;2023-02-24T14:19:48;16.55;;;2.90;;
60372;SDS011;46216;52.220;5.134;2023-02-24T14:22:16;15.32;;;2.58;;
60372;SDS011;46216;52.220;5.134;2023-02-24T14:24:44;18.27;;;3.00;;
60372;SDS011;46216;52.220;5.134;2023-02-24T14:27:18;23.83;;;3.28;;
60372;SDS011;46216;52.220;5.134;2023-02-24T14:29:49;16.05;;;2.75;;
60372;SDS011;46216;52.220;5.134;2023-02-24T14:32:20;22.98;;;3.10;;
60372;SDS011;46216;52.220;5.134;2023-02-24T14:34:48;17.70;;;3.40;;
60372;SDS011;46216;52.220;5.134;2023-02-24T14:37:13;18.63;;;3.00;;
60372;SDS011;46216;52.220;5.134;2023-02-24T14:39:48;16.83;;;3.13;;
60372;SDS011;46216;52.220;5.134;2023-02-24T14:42:16;15.50;;;2.50;;
60372;SDS011;46216;52.220;5.134;2023-02-24T14:44:47;17.33;;;2.60;;
60372;SDS011;46216;52.220;5.134;2023-02-24T14:47:15;7.00;;;1.60;;
60372;SDS011;46216;52.220;5.134;2023-02-24T14:49:50;10.95;;;1.95;;
60372;SDS011;46216;52.220;5.134;2023-02-24T14:54:50;7.80;;;1.48;;
60372;SDS011;46216;52.220;5.134;2023-02-24T14:57:22;7.47;;;1.45;;
60372;SDS011;46216;52.220;5.134;2023-02-24T14:59:52;5.43;;;1.10;;
60372;SDS011;46216;52.220;5.134;2023-02-24T15:02:22;5.20;;;1.20;;
60372;SDS011;46216;52.220;5.134;2023-02-24T15:04:53;4.15;;;0.80;;
60372;SDS011;46216;52.220;5.134;2023-02-24T15:07:30;4.07;;;1.13;;
60372;SDS011;46216;52.220;5.134;2023-02-24T15:09:57;6.85;;;1.42;;
60372;SDS011;46216;52.220;5.134;2023-02-24T15:14:53;8.13;;;1.30;;
60372;SDS011;46216;52.220;5.134;2023-02-24T15:17:28;4.35;;;0.93;;
60372;SDS011;46216;52.220;5.134;2023-02-24T15:19:54;6.65;;;1.40;;
60372;SDS011;46216;52.220;5.134;2023-02-24T15:24:45;6.15;;;1.60;;
60372;SDS011;46216;52.220;5.134;2023-02-24T15:29:39;6.13;;;1.30;;
60372;SDS011;46216;52.220;5.134;2023-02-24T15:32:13;8.10;;;1.42;;
60372;SDS011;46216;52.220;5.134;2023-02-24T15:34:43;6.18;;;1.50;;
60372;SDS011;46216;52.220;5.134;2023-02-24T15:37:13;4.80;;;1.17;;
60372;SDS011;46216;52.220;5.134;2023-02-24T15:39:44;6.53;;;1.45;;
60372;SDS011;46216;52.220;5.134;2023-02-24T15:44:54;8.60;;;1.48;;
60372;SDS011;46216;52.220;5.134;2023-02-24T15:47:22;8.60;;;1.70;;
60372;SDS011;46216;52.220;5.134;2023-02-24T15:50:04;9.18;;;1.77;;
60372;SDS011;46216;52.220;5.134;2023-02-24T15:52:29;6.38;;;1.50;;
60372;SDS011;46216;52.220;5.134;2023-02-24T15:54:55;8.93;;;1.70;;
60372;SDS011;46216;52.220;5.134;2023-02-24T15:57:23;7.00;;;1.38;;
60372;SDS011;46216;52.220;5.134;2023-02-24T15:59:49;7.55;;;1.60;;
60372;SDS011;46216;52.220;5.134;2023-02-24T16:02:16;7.45;;;1.67;;
60372;SDS011;46216;52.220;5.134;2023-02-24T16:04:43;6.55;;;1.70;;
60372;SDS011;46216;52.220;5.134;2023-02-24T16:07:10;6.90;;;1.20;;
60372;SDS011;46216;52.220;5.134;2023-02-24T16:09:41;7.00;;;1.60;;
60372;SDS011;46216;52.220;5.134;2023-02-24T16:12:12;11.25;;;1.30;;
60372;SDS011;46216;52.220;5.134;2023-02-24T16:14:43;6.28;;;1.42;;
60372;SDS011;46216;52.220;5.134;2023-02-24T16:19:58;7.72;;;1.38;;
60372;SDS011;46216;52.220;5.134;2023-02-24T16:22:23;11.35;;;1.75;;
60372;SDS011;46216;52.220;5.134;2023-02-24T16:24:49;9.75;;;2.15;;
60372;SDS011;46216;52.220;5.134;2023-02-24T16:27:15;9.50;;;1.83;;
60372;SDS011;46216;52.220;5.134;2023-02-24T16:29:41;10.40;;;1.80;;
60372;SDS011;46216;52.220;5.134;2023-02-24T16:32:08;11.30;;;2.10;;
60372;SDS011;46216;52.220;5.134;2023-02-24T16:34:34;7.90;;;1.55;;
60372;SDS011;46216;52.220;5.134;2023-02-24T16:37:00;8.23;;;1.67;;
60372;SDS011;46216;52.220;5.134;2023-02-24T16:39:25;9.93;;;1.75;;
60372;SDS011;46216;52.220;5.134;2023-02-24T16:41:50;14.05;;;2.22;;
60372;SDS011;46216;52.220;5.134;2023-02-24T16:44:16;11.63;;;1.88;;
60372;SDS011;46216;52.220;5.134;2023-02-24T16:46:42;14.90;;;2.30;;
60372;SDS011;46216;52.220;5.134;2023-02-24T16:49:09;11.70;;;1.98;;
60372;SDS011;46216;52.220;5.134;2023-02-24T16:51:41;12.95;;;2.05;;
60372;SDS011;46216;52.220;5.134;2023-02-24T16:54:07;10.23;;;1.92;;
60372;SDS011;46216;52.220;5.134;2023-02-24T16:56:32;14.00;;;2.10;;
60372;SDS011;46216;52.220;5.134;2023-02-24T16:58:57;15.98;;;2.50;;
60372;SDS011;46216;52.220;5.134;2023-02-24T17:01:23;13.95;;;2.13;;
60372;SDS011;46216;52.220;5.134;2023-02-24T17:03:49;13.13;;;2.20;;
60372;SDS011;46216;52.220;5.134;2023-02-24T17:06:16;12.07;;;1.85;;
60372;SDS011;46216;52.220;5.134;2023-02-24T17:08:41;11.25;;;2.35;;
60372;SDS011;46216;52.220;5.134;2023-02-24T17:11:12;14.75;;;2.47;;
60372;SDS011;46216;52.220;5.134;2023-02-24T17:13:40;11.77;;;1.98;;
60372;SDS011;46216;52.220;5.134;2023-02-24T17:16:05;11.50;;;2.20;;
60372;SDS011;46216;52.220;5.134;2023-02-24T17:18:31;13.85;;;3.10;;
60372;SDS011;46216;52.220;5.134;2023-02-24T17:20:57;9.82;;;2.15;;
60372;SDS011;46216;52.220;5.134;2023-02-24T17:23:22;19.27;;;2.88;;